sensor_id;sensor_type;location;lat;lon;timestamp;temperature;humidity
51595;DHT22;37677;53.254;6.594;2022-12-29T00:02:20;10.40;46.20
51595;DHT22;37677;53.254;6.594;2022-12-29T00:04:46;10.30;43.50
51595;DHT22;37677;53.254;6.594;2022-12-29T00:07:12;10.50;44.20
51595;DHT22;37677;53.254;6.594;2022-12-29T00:09:38;10.50;46.50
51595;DHT22;37677;53.254;6.594;2022-12-29T00:12:04;10.50;48.50
51595;DHT22;37677;53.254;6.594;2022-12-29T00:14:30;10.50;51.50
51595;DHT22;37677;53.254;6.594;2022-12-29T00:17:15;10.50;54.80
51595;DHT22;37677;53.254;6.594;2022-12-29T00:19:40;10.50;57.90
51595;DHT22;37677;53.254;6.594;2022-12-29T00:22:25;10.50;58.80
51595;DHT22;37677;53.254;6.594;2022-12-29T00:25:11;10.90;59.40
51595;DHT22;37677;53.254;6.594;2022-12-29T00:27:56;10.80;59.80
51595;DHT22;37677;53.254;6.594;2022-12-29T00:30:40;10.50;60.50
51595;DHT22;37677;53.254;6.594;2022-12-29T00:33:32;10.50;60.70
51595;DHT22;37677;53.254;6.594;2022-12-29T00:39:15;10.50;58.40
51595;DHT22;37677;53.254;6.594;2022-12-29T00:42:07;10.60;55.80
51595;DHT22;37677;53.254;6.594;2022-12-29T00:44:52;10.60;53.30
51595;DHT22;37677;53.254;6.594;2022-12-29T00:47:17;10.60;52.00
51595;DHT22;37677;53.254;6.594;2022-12-29T00:49:43;10.70;50.80
51595;DHT22;37677;53.254;6.594;2022-12-29T00:52:10;10.70;49.80
51595;DHT22;37677;53.254;6.594;2022-12-29T00:54:38;10.70;47.90
51595;DHT22;37677;53.254;6.594;2022-12-29T00:57:05;10.70;48.20
51595;DHT22;37677;53.254;6.594;2022-12-29T00:59:32;10.60;47.00
51595;DHT22;37677;53.254;6.594;2022-12-29T01:01:58;10.70;47.00
51595;DHT22;37677;53.254;6.594;2022-12-29T01:04:25;11.50;44.20
51595;DHT22;37677;53.254;6.594;2022-12-29T01:06:51;10.80;42.40
51595;DHT22;37677;53.254;6.594;2022-12-29T01:09:18;11.20;44.50
51595;DHT22;37677;53.254;6.594;2022-12-29T01:12:04;10.80;43.20
51595;DHT22;37677;53.254;6.594;2022-12-29T01:14:30;10.80;43.00
51595;DHT22;37677;53.254;6.594;2022-12-29T01:16:56;10.80;40.80
51595;DHT22;37677;53.254;6.594;2022-12-29T01:19:22;10.80;41.50
51595;DHT22;37677;53.254;6.594;2022-12-29T01:21:49;10.80;40.70
51595;DHT22;37677;53.254;6.594;2022-12-29T01:24:16;10.80;39.60
51595;DHT22;37677;53.254;6.594;2022-12-29T01:26:41;10.80;40.00
51595;DHT22;37677;53.254;6.594;2022-12-29T01:29:07;10.80;40.40
51595;DHT22;37677;53.254;6.594;2022-12-29T01:31:33;10.80;40.10
51595;DHT22;37677;53.254;6.594;2022-12-29T01:33:59;10.80;41.70
51595;DHT22;37677;53.254;6.594;2022-12-29T01:36:24;10.80;42.60
51595;DHT22;37677;53.254;6.594;2022-12-29T01:38:50;10.80;43.20
51595;DHT22;37677;53.254;6.594;2022-12-29T01:41:16;10.80;45.00
51595;DHT22;37677;53.254;6.594;2022-12-29T01:43:50;10.80;47.60
51595;DHT22;37677;53.254;6.594;2022-12-29T01:49:11;10.70;47.20
51595;DHT22;37677;53.254;6.594;2022-12-29T01:51:47;10.70;48.00
51595;DHT22;37677;53.254;6.594;2022-12-29T01:54:16;10.70;50.50
51595;DHT22;37677;53.254;6.594;2022-12-29T01:56:43;10.70;53.70
51595;DHT22;37677;53.254;6.594;2022-12-29T01:59:15;10.70;56.50
51595;DHT22;37677;53.254;6.594;2022-12-29T02:01:41;10.60;60.20
51595;DHT22;37677;53.254;6.594;2022-12-29T02:04:09;10.60;63.80
51595;DHT22;37677;53.254;6.594;2022-12-29T02:07:01;10.60;62.60
51595;DHT22;37677;53.254;6.594;2022-12-29T02:09:25;10.60;65.70
51595;DHT22;37677;53.254;6.594;2022-12-29T02:11:51;10.60;72.10
51595;DHT22;37677;53.254;6.594;2022-12-29T02:14:18;10.50;70.50
51595;DHT22;37677;53.254;6.594;2022-12-29T02:22:30;10.50;73.50
51595;DHT22;37677;53.254;6.594;2022-12-29T02:25:23;11.10;72.80
51595;DHT22;37677;53.254;6.594;2022-12-29T02:28:29;10.40;71.60
51595;DHT22;37677;53.254;6.594;2022-12-29T02:34:08;10.50;70.00
51595;DHT22;37677;53.254;6.594;2022-12-29T02:39:21;10.50;67.30
51595;DHT22;37677;53.254;6.594;2022-12-29T02:42:01;11.20;65.70
51595;DHT22;37677;53.254;6.594;2022-12-29T02:47:14;10.60;58.90
51595;DHT22;37677;53.254;6.594;2022-12-29T02:52:26;10.60;59.30
51595;DHT22;37677;53.254;6.594;2022-12-29T02:54:54;10.60;60.10
51595;DHT22;37677;53.254;6.594;2022-12-29T02:59:47;10.50;58.00
51595;DHT22;37677;53.254;6.594;2022-12-29T03:05:23;10.60;58.10
51595;DHT22;37677;53.254;6.594;2022-12-29T03:11:05;10.60;55.50
51595;DHT22;37677;53.254;6.594;2022-12-29T03:13:54;10.60;55.90
51595;DHT22;37677;53.254;6.594;2022-12-29T03:16:44;11.50;53.40
51595;DHT22;37677;53.254;6.594;2022-12-29T03:19:32;10.60;51.00
51595;DHT22;37677;53.254;6.594;2022-12-29T03:22:08;10.60;50.90
51595;DHT22;37677;53.254;6.594;2022-12-29T03:25:09;10.60;50.70
51595;DHT22;37677;53.254;6.594;2022-12-29T03:27:41;9.90;50.80
51595;DHT22;37677;53.254;6.594;2022-12-29T03:30:08;11.30;51.00
51595;DHT22;37677;53.254;6.594;2022-12-29T03:32:50;10.60;51.50
51595;DHT22;37677;53.254;6.594;2022-12-29T03:35:19;10.60;49.10
51595;DHT22;37677;53.254;6.594;2022-12-29T03:40:48;10.60;37.00
51595;DHT22;37677;53.254;6.594;2022-12-29T03:43:15;10.50;30.50
51595;DHT22;37677;53.254;6.594;2022-12-29T03:45:42;11.00;32.50
51595;DHT22;37677;53.254;6.594;2022-12-29T03:48:08;10.40;29.00
51595;DHT22;37677;53.254;6.594;2022-12-29T03:50:34;10.40;26.20
51595;DHT22;37677;53.254;6.594;2022-12-29T03:52:59;10.40;26.10
51595;DHT22;37677;53.254;6.594;2022-12-29T03:55:25;10.50;24.30
51595;DHT22;37677;53.254;6.594;2022-12-29T03:57:51;10.50;22.30
51595;DHT22;37677;53.254;6.594;2022-12-29T04:00:16;10.80;22.40
51595;DHT22;37677;53.254;6.594;2022-12-29T04:02:42;10.40;23.90
51595;DHT22;37677;53.254;6.594;2022-12-29T04:05:08;10.40;25.50
51595;DHT22;37677;53.254;6.594;2022-12-29T04:07:33;10.30;26.40
51595;DHT22;37677;53.254;6.594;2022-12-29T04:09:59;10.30;27.60
51595;DHT22;37677;53.254;6.594;2022-12-29T04:12:25;10.30;29.00
51595;DHT22;37677;53.254;6.594;2022-12-29T04:14:50;10.50;28.30
51595;DHT22;37677;53.254;6.594;2022-12-29T04:17:16;10.30;29.70
51595;DHT22;37677;53.254;6.594;2022-12-29T04:19:42;10.30;28.30
51595;DHT22;37677;53.254;6.594;2022-12-29T04:22:07;10.30;29.50
51595;DHT22;37677;53.254;6.594;2022-12-29T04:24:33;11.10;28.40
51595;DHT22;37677;53.254;6.594;2022-12-29T04:26:58;10.40;22.70
51595;DHT22;37677;53.254;6.594;2022-12-29T04:29:24;10.50;21.70
51595;DHT22;37677;53.254;6.594;2022-12-29T04:31:50;10.40;15.80
51595;DHT22;37677;53.254;6.594;2022-12-29T04:34:16;10.50;15.10
51595;DHT22;37677;53.254;6.594;2022-12-29T04:36:41;10.50;10.30
51595;DHT22;37677;53.254;6.594;2022-12-29T04:39:07;10.50;8.30
51595;DHT22;37677;53.254;6.594;2022-12-29T04:41:33;10.80;5.80
51595;DHT22;37677;53.254;6.594;2022-12-29T04:43:58;10.60;2.10
51595;DHT22;37677;53.254;6.594;2022-12-29T04:46:24;10.50;1.00
51595;DHT22;37677;53.254;6.594;2022-12-29T04:48:50;10.40;1.00
51595;DHT22;37677;53.254;6.594;2022-12-29T04:51:16;10.60;1.00
51595;DHT22;37677;53.254;6.594;2022-12-29T04:53:42;10.70;1.00
51595;DHT22;37677;53.254;6.594;2022-12-29T04:56:07;10.40;1.00
51595;DHT22;37677;53.254;6.594;2022-12-29T04:58:34;10.50;1.00
51595;DHT22;37677;53.254;6.594;2022-12-29T05:01:00;10.30;1.00
51595;DHT22;37677;53.254;6.594;2022-12-29T05:03:26;10.20;1.00
51595;DHT22;37677;53.254;6.594;2022-12-29T05:05:55;10.10;1.00
51595;DHT22;37677;53.254;6.594;2022-12-29T05:08:21;10.20;1.00
51595;DHT22;37677;53.254;6.594;2022-12-29T05:10:47;10.20;1.00
51595;DHT22;37677;53.254;6.594;2022-12-29T05:13:13;10.50;1.00
51595;DHT22;37677;53.254;6.594;2022-12-29T05:15:38;10.70;1.00
51595;DHT22;37677;53.254;6.594;2022-12-29T05:18:04;10.20;3.10
51595;DHT22;37677;53.254;6.594;2022-12-29T05:20:30;11.20;2.70
51595;DHT22;37677;53.254;6.594;2022-12-29T05:22:55;9.90;3.40
51595;DHT22;37677;53.254;6.594;2022-12-29T05:25:21;9.90;3.80
51595;DHT22;37677;53.254;6.594;2022-12-29T05:27:46;9.90;3.40
51595;DHT22;37677;53.254;6.594;2022-12-29T05:30:12;9.90;2.20
51595;DHT22;37677;53.254;6.594;2022-12-29T05:32:38;9.70;3.70
51595;DHT22;37677;53.254;6.594;2022-12-29T05:35:04;9.80;3.90
51595;DHT22;37677;53.254;6.594;2022-12-29T05:37:30;9.80;3.20
51595;DHT22;37677;53.254;6.594;2022-12-29T05:39:55;10.10;1.00
51595;DHT22;37677;53.254;6.594;2022-12-29T05:42:21;9.80;2.40
51595;DHT22;37677;53.254;6.594;2022-12-29T05:44:46;9.80;2.10
51595;DHT22;37677;53.254;6.594;2022-12-29T05:47:15;9.80;1.00
51595;DHT22;37677;53.254;6.594;2022-12-29T05:49:40;9.80;1.40
51595;DHT22;37677;53.254;6.594;2022-12-29T05:52:06;9.70;1.50
51595;DHT22;37677;53.254;6.594;2022-12-29T05:54:32;9.70;3.60
51595;DHT22;37677;53.254;6.594;2022-12-29T05:56:57;9.70;5.60
51595;DHT22;37677;53.254;6.594;2022-12-29T05:59:23;10.80;8.20
51595;DHT22;37677;53.254;6.594;2022-12-29T06:01:49;9.70;8.90
51595;DHT22;37677;53.254;6.594;2022-12-29T06:04:14;10.60;3.70
51595;DHT22;37677;53.254;6.594;2022-12-29T06:06:40;9.90;2.10
51595;DHT22;37677;53.254;6.594;2022-12-29T06:09:06;9.90;1.00
51595;DHT22;37677;53.254;6.594;2022-12-29T06:11:31;9.90;1.00
51595;DHT22;37677;53.254;6.594;2022-12-29T06:13:57;10.10;1.00
51595;DHT22;37677;53.254;6.594;2022-12-29T06:16:23;10.70;1.00
51595;DHT22;37677;53.254;6.594;2022-12-29T06:18:48;9.90;1.00
51595;DHT22;37677;53.254;6.594;2022-12-29T06:21:14;9.90;1.00
51595;DHT22;37677;53.254;6.594;2022-12-29T06:23:39;9.90;1.00
51595;DHT22;37677;53.254;6.594;2022-12-29T06:26:05;9.90;1.00
51595;DHT22;37677;53.254;6.594;2022-12-29T06:28:31;9.80;1.00
51595;DHT22;37677;53.254;6.594;2022-12-29T06:30:57;9.90;1.00
51595;DHT22;37677;53.254;6.594;2022-12-29T06:33:22;9.90;1.00
51595;DHT22;37677;53.254;6.594;2022-12-29T06:35:48;9.80;1.00
51595;DHT22;37677;53.254;6.594;2022-12-29T06:38:14;9.80;1.00
51595;DHT22;37677;53.254;6.594;2022-12-29T06:40:41;9.80;1.00
51595;DHT22;37677;53.254;6.594;2022-12-29T06:43:06;9.70;1.00
51595;DHT22;37677;53.254;6.594;2022-12-29T06:45:32;9.80;1.00
51595;DHT22;37677;53.254;6.594;2022-12-29T06:47:58;9.70;1.00
51595;DHT22;37677;53.254;6.594;2022-12-29T06:50:24;9.70;1.00
51595;DHT22;37677;53.254;6.594;2022-12-29T06:52:49;9.80;1.00
51595;DHT22;37677;53.254;6.594;2022-12-29T06:55:15;9.70;1.00
51595;DHT22;37677;53.254;6.594;2022-12-29T06:57:41;9.70;1.00
51595;DHT22;37677;53.254;6.594;2022-12-29T07:00:08;10.50;1.00
51595;DHT22;37677;53.254;6.594;2022-12-29T07:02:33;9.70;1.00
51595;DHT22;37677;53.254;6.594;2022-12-29T07:04:59;9.70;1.00
51595;DHT22;37677;53.254;6.594;2022-12-29T07:07:25;9.80;1.00
51595;DHT22;37677;53.254;6.594;2022-12-29T07:09:50;9.70;1.00
51595;DHT22;37677;53.254;6.594;2022-12-29T07:12:16;9.60;1.00
51595;DHT22;37677;53.254;6.594;2022-12-29T07:14:42;9.60;1.00
51595;DHT22;37677;53.254;6.594;2022-12-29T07:17:07;9.60;1.00
51595;DHT22;37677;53.254;6.594;2022-12-29T07:19:33;9.60;1.00
51595;DHT22;37677;53.254;6.594;2022-12-29T07:21:59;9.60;1.00
51595;DHT22;37677;53.254;6.594;2022-12-29T07:24:25;9.70;1.00
51595;DHT22;37677;53.254;6.594;2022-12-29T07:26:55;10.20;1.00
51595;DHT22;37677;53.254;6.594;2022-12-29T07:29:20;9.70;1.00
51595;DHT22;37677;53.254;6.594;2022-12-29T07:31:46;9.70;1.00
51595;DHT22;37677;53.254;6.594;2022-12-29T07:34:12;9.80;1.00
51595;DHT22;37677;53.254;6.594;2022-12-29T07:36:37;9.70;1.00
51595;DHT22;37677;53.254;6.594;2022-12-29T07:39:03;10.10;1.00
51595;DHT22;37677;53.254;6.594;2022-12-29T07:41:29;9.80;1.00
51595;DHT22;37677;53.254;6.594;2022-12-29T07:43:55;9.80;1.00
51595;DHT22;37677;53.254;6.594;2022-12-29T07:46:20;9.80;1.00
51595;DHT22;37677;53.254;6.594;2022-12-29T07:48:46;10.40;1.00
51595;DHT22;37677;53.254;6.594;2022-12-29T07:51:12;9.80;1.00
51595;DHT22;37677;53.254;6.594;2022-12-29T07:53:38;10.10;1.00
51595;DHT22;37677;53.254;6.594;2022-12-29T07:56:03;10.00;1.00
51595;DHT22;37677;53.254;6.594;2022-12-29T07:58:29;10.20;1.00
51595;DHT22;37677;53.254;6.594;2022-12-29T08:00:55;10.50;1.00
51595;DHT22;37677;53.254;6.594;2022-12-29T08:03:21;10.10;1.00
51595;DHT22;37677;53.254;6.594;2022-12-29T08:05:48;10.10;1.00
51595;DHT22;37677;53.254;6.594;2022-12-29T08:08:13;10.00;1.00
51595;DHT22;37677;53.254;6.594;2022-12-29T08:10:39;10.10;1.00
51595;DHT22;37677;53.254;6.594;2022-12-29T08:13:05;9.90;1.00
51595;DHT22;37677;53.254;6.594;2022-12-29T08:15:31;9.80;1.00
51595;DHT22;37677;53.254;6.594;2022-12-29T08:17:56;9.80;1.00
51595;DHT22;37677;53.254;6.594;2022-12-29T08:20:22;9.80;1.00
51595;DHT22;37677;53.254;6.594;2022-12-29T08:22:47;9.80;1.00
51595;DHT22;37677;53.254;6.594;2022-12-29T08:25:13;9.80;1.00
51595;DHT22;37677;53.254;6.594;2022-12-29T08:27:39;9.80;1.00
51595;DHT22;37677;53.254;6.594;2022-12-29T08:30:05;10.10;1.00
51595;DHT22;37677;53.254;6.594;2022-12-29T08:32:31;9.90;1.00
51595;DHT22;37677;53.254;6.594;2022-12-29T08:34:57;9.90;1.00
51595;DHT22;37677;53.254;6.594;2022-12-29T08:37:22;9.90;1.00
51595;DHT22;37677;53.254;6.594;2022-12-29T08:39:48;10.00;1.00
51595;DHT22;37677;53.254;6.594;2022-12-29T08:42:15;9.90;1.00
51595;DHT22;37677;53.254;6.594;2022-12-29T08:44:41;9.80;1.00
51595;DHT22;37677;53.254;6.594;2022-12-29T08:47:06;10.60;1.00
51595;DHT22;37677;53.254;6.594;2022-12-29T08:49:33;9.80;1.00
51595;DHT22;37677;53.254;6.594;2022-12-29T08:51:59;9.60;1.00
51595;DHT22;37677;53.254;6.594;2022-12-29T08:54:25;10.10;1.00
51595;DHT22;37677;53.254;6.594;2022-12-29T08:56:50;9.70;1.00
51595;DHT22;37677;53.254;6.594;2022-12-29T08:59:16;9.60;1.00
51595;DHT22;37677;53.254;6.594;2022-12-29T09:01:42;9.60;1.00
51595;DHT22;37677;53.254;6.594;2022-12-29T09:04:07;9.60;1.00
51595;DHT22;37677;53.254;6.594;2022-12-29T09:06:33;9.90;1.90
51595;DHT22;37677;53.254;6.594;2022-12-29T09:08:59;9.90;1.00
51595;DHT22;37677;53.254;6.594;2022-12-29T09:11:25;9.60;1.00
51595;DHT22;37677;53.254;6.594;2022-12-29T09:13:51;9.60;1.00
51595;DHT22;37677;53.254;6.594;2022-12-29T09:16:17;10.30;1.00
51595;DHT22;37677;53.254;6.594;2022-12-29T09:18:43;10.50;5.00
51595;DHT22;37677;53.254;6.594;2022-12-29T09:21:10;10.70;12.20
51595;DHT22;37677;53.254;6.594;2022-12-29T09:23:36;9.70;18.50
51595;DHT22;37677;53.254;6.594;2022-12-29T09:26:03;9.40;20.90
51595;DHT22;37677;53.254;6.594;2022-12-29T09:28:30;9.50;23.60
51595;DHT22;37677;53.254;6.594;2022-12-29T09:30:57;9.50;21.10
51595;DHT22;37677;53.254;6.594;2022-12-29T09:33:23;9.50;13.30
51595;DHT22;37677;53.254;6.594;2022-12-29T09:35:57;9.80;12.90
51595;DHT22;37677;53.254;6.594;2022-12-29T09:38:24;9.50;10.70
51595;DHT22;37677;53.254;6.594;2022-12-29T09:41:00;9.50;8.60
51595;DHT22;37677;53.254;6.594;2022-12-29T09:48:50;9.60;9.90
51595;DHT22;37677;53.254;6.594;2022-12-29T09:51:22;9.60;8.50
51595;DHT22;37677;53.254;6.594;2022-12-29T09:53:53;9.80;9.10
51595;DHT22;37677;53.254;6.594;2022-12-29T09:56:23;9.60;14.70
51595;DHT22;37677;53.254;6.594;2022-12-29T09:59:04;9.50;17.00
51595;DHT22;37677;53.254;6.594;2022-12-29T10:04:11;9.50;15.30
51595;DHT22;37677;53.254;6.594;2022-12-29T10:06:49;9.60;9.00
51595;DHT22;37677;53.254;6.594;2022-12-29T10:15:04;9.60;13.00
51595;DHT22;37677;53.254;6.594;2022-12-29T10:17:48;9.50;19.70
51595;DHT22;37677;53.254;6.594;2022-12-29T10:23:27;9.40;27.40
51595;DHT22;37677;53.254;6.594;2022-12-29T10:25:56;9.30;30.30
51595;DHT22;37677;53.254;6.594;2022-12-29T10:28:24;9.40;34.30
51595;DHT22;37677;53.254;6.594;2022-12-29T10:30:56;9.60;35.00
51595;DHT22;37677;53.254;6.594;2022-12-29T10:33:32;10.20;38.70
51595;DHT22;37677;53.254;6.594;2022-12-29T10:36:09;9.20;41.00
51595;DHT22;37677;53.254;6.594;2022-12-29T10:38:42;9.10;48.60
51595;DHT22;37677;53.254;6.594;2022-12-29T10:43:50;9.10;52.10
51595;DHT22;37677;53.254;6.594;2022-12-29T10:46:20;9.10;53.50
51595;DHT22;37677;53.254;6.594;2022-12-29T10:48:47;9.10;53.40
51595;DHT22;37677;53.254;6.594;2022-12-29T10:54:05;9.30;50.90
51595;DHT22;37677;53.254;6.594;2022-12-29T10:56:47;9.10;48.70
51595;DHT22;37677;53.254;6.594;2022-12-29T10:59:23;9.20;46.90
51595;DHT22;37677;53.254;6.594;2022-12-29T11:01:56;9.30;34.20
51595;DHT22;37677;53.254;6.594;2022-12-29T11:04:57;9.30;36.60
51595;DHT22;37677;53.254;6.594;2022-12-29T11:07:18;9.30;36.20
51595;DHT22;37677;53.254;6.594;2022-12-29T11:09:45;9.40;33.10
51595;DHT22;37677;53.254;6.594;2022-12-29T11:12:29;9.40;31.40
51595;DHT22;37677;53.254;6.594;2022-12-29T11:17:46;9.50;27.50
51595;DHT22;37677;53.254;6.594;2022-12-29T11:20:38;9.50;26.70
51595;DHT22;37677;53.254;6.594;2022-12-29T11:23:23;9.50;25.40
51595;DHT22;37677;53.254;6.594;2022-12-29T11:26:06;10.00;25.60
51595;DHT22;37677;53.254;6.594;2022-12-29T11:28:33;10.40;22.20
51595;DHT22;37677;53.254;6.594;2022-12-29T11:31:00;10.40;1.00
51595;DHT22;37677;53.254;6.594;2022-12-29T11:33:31;10.20;1.00
51595;DHT22;37677;53.254;6.594;2022-12-29T11:38:40;9.90;1.00
51595;DHT22;37677;53.254;6.594;2022-12-29T11:41:11;9.80;1.00
51595;DHT22;37677;53.254;6.594;2022-12-29T11:43:40;9.90;3.10
51595;DHT22;37677;53.254;6.594;2022-12-29T11:46:13;9.80;8.10
51595;DHT22;37677;53.254;6.594;2022-12-29T11:48:40;9.80;9.60
51595;DHT22;37677;53.254;6.594;2022-12-29T11:51:07;9.80;5.10
51595;DHT22;37677;53.254;6.594;2022-12-29T11:53:48;9.80;3.50
51595;DHT22;37677;53.254;6.594;2022-12-29T11:56:23;10.90;4.50
51595;DHT22;37677;53.254;6.594;2022-12-29T11:58:55;9.90;5.50
51595;DHT22;37677;53.254;6.594;2022-12-29T12:01:37;9.90;5.40
51595;DHT22;37677;53.254;6.594;2022-12-29T12:06:32;9.80;1.00
51595;DHT22;37677;53.254;6.594;2022-12-29T12:09:04;9.80;3.30
51595;DHT22;37677;53.254;6.594;2022-12-29T12:11:34;9.80;4.90
51595;DHT22;37677;53.254;6.594;2022-12-29T12:14:25;9.70;2.30
51595;DHT22;37677;53.254;6.594;2022-12-29T12:17:11;9.90;15.70
51595;DHT22;37677;53.254;6.594;2022-12-29T12:19:48;10.60;31.70
51595;DHT22;37677;53.254;6.594;2022-12-29T12:22:39;10.10;1.00
51595;DHT22;37677;53.254;6.594;2022-12-29T12:25:21;9.90;1.40
51595;DHT22;37677;53.254;6.594;2022-12-29T12:28:00;9.80;2.00
51595;DHT22;37677;53.254;6.594;2022-12-29T12:30:30;9.80;3.20
51595;DHT22;37677;53.254;6.594;2022-12-29T12:33:28;9.70;5.40
51595;DHT22;37677;53.254;6.594;2022-12-29T12:39:04;9.80;1.00
51595;DHT22;37677;53.254;6.594;2022-12-29T12:44:30;9.80;1.00
51595;DHT22;37677;53.254;6.594;2022-12-29T12:49:41;9.70;1.00
51595;DHT22;37677;53.254;6.594;2022-12-29T12:55:02;9.60;1.00
51595;DHT22;37677;53.254;6.594;2022-12-29T13:00:17;9.60;1.00
51595;DHT22;37677;53.254;6.594;2022-12-29T13:03:12;9.60;1.00
51595;DHT22;37677;53.254;6.594;2022-12-29T13:05:50;9.60;1.00
51595;DHT22;37677;53.254;6.594;2022-12-29T13:08:25;9.60;1.00
51595;DHT22;37677;53.254;6.594;2022-12-29T13:24:24;9.80;1.00
51595;DHT22;37677;53.254;6.594;2022-12-29T13:29:34;10.10;1.00
51595;DHT22;37677;53.254;6.594;2022-12-29T13:38:29;9.40;1.00
51595;DHT22;37677;53.254;6.594;2022-12-29T13:41:06;9.40;1.00
51595;DHT22;37677;53.254;6.594;2022-12-29T13:43:35;9.40;1.00
51595;DHT22;37677;53.254;6.594;2022-12-29T13:46:37;9.40;1.00
51595;DHT22;37677;53.254;6.594;2022-12-29T13:49:21;9.40;1.00
51595;DHT22;37677;53.254;6.594;2022-12-29T13:51:56;9.40;1.00
51595;DHT22;37677;53.254;6.594;2022-12-29T13:59:51;9.40;1.00
51595;DHT22;37677;53.254;6.594;2022-12-29T14:07:44;9.60;1.00
51595;DHT22;37677;53.254;6.594;2022-12-29T14:10:34;9.50;1.00
51595;DHT22;37677;53.254;6.594;2022-12-29T14:15:45;9.60;1.00
51595;DHT22;37677;53.254;6.594;2022-12-29T14:18:26;9.50;1.00
51595;DHT22;37677;53.254;6.594;2022-12-29T14:30:55;9.30;1.00
51595;DHT22;37677;53.254;6.594;2022-12-29T14:33:22;9.40;1.00
51595;DHT22;37677;53.254;6.594;2022-12-29T14:35:49;9.40;1.00
51595;DHT22;37677;53.254;6.594;2022-12-29T14:38:23;9.40;1.00
51595;DHT22;37677;53.254;6.594;2022-12-29T14:40:50;9.10;1.00
51595;DHT22;37677;53.254;6.594;2022-12-29T14:43:25;9.30;1.00
51595;DHT22;37677;53.254;6.594;2022-12-29T14:46:00;9.20;1.00
51595;DHT22;37677;53.254;6.594;2022-12-29T14:48:34;9.10;1.00
51595;DHT22;37677;53.254;6.594;2022-12-29T14:51:01;9.10;1.00
51595;DHT22;37677;53.254;6.594;2022-12-29T14:56:10;9.00;1.00
51595;DHT22;37677;53.254;6.594;2022-12-29T14:58:48;9.00;1.00
51595;DHT22;37677;53.254;6.594;2022-12-29T15:04:14;8.90;1.00
51595;DHT22;37677;53.254;6.594;2022-12-29T15:06:40;9.40;1.00
51595;DHT22;37677;53.254;6.594;2022-12-29T15:09:44;8.80;1.00
51595;DHT22;37677;53.254;6.594;2022-12-29T15:12:37;8.70;1.00
51595;DHT22;37677;53.254;6.594;2022-12-29T15:17:42;8.70;1.00
51595;DHT22;37677;53.254;6.594;2022-12-29T15:20:27;8.70;1.00
51595;DHT22;37677;53.254;6.594;2022-12-29T15:23:02;8.70;1.00
51595;DHT22;37677;53.254;6.594;2022-12-29T15:25:28;8.80;1.00
51595;DHT22;37677;53.254;6.594;2022-12-29T15:28:03;9.20;1.00
51595;DHT22;37677;53.254;6.594;2022-12-29T15:30:30;8.70;1.00
51595;DHT22;37677;53.254;6.594;2022-12-29T15:32:56;8.70;1.00
51595;DHT22;37677;53.254;6.594;2022-12-29T15:37:59;8.60;1.00
51595;DHT22;37677;53.254;6.594;2022-12-29T15:40:32;8.60;1.00
51595;DHT22;37677;53.254;6.594;2022-12-29T15:43:33;8.60;1.00
51595;DHT22;37677;53.254;6.594;2022-12-29T15:46:01;8.50;1.00
51595;DHT22;37677;53.254;6.594;2022-12-29T15:48:27;8.50;1.00
51595;DHT22;37677;53.254;6.594;2022-12-29T15:50:53;8.50;1.00
51595;DHT22;37677;53.254;6.594;2022-12-29T15:53:29;8.60;1.40
51595;DHT22;37677;53.254;6.594;2022-12-29T15:56:06;8.40;1.20
51595;DHT22;37677;53.254;6.594;2022-12-29T15:58:41;8.40;1.50
51595;DHT22;37677;53.254;6.594;2022-12-29T16:01:18;9.00;5.00
51595;DHT22;37677;53.254;6.594;2022-12-29T16:03:44;8.40;4.60
51595;DHT22;37677;53.254;6.594;2022-12-29T16:06:27;8.40;5.90
51595;DHT22;37677;53.254;6.594;2022-12-29T16:11:41;8.40;5.60
51595;DHT22;37677;53.254;6.594;2022-12-29T16:14:16;8.40;6.50
51595;DHT22;37677;53.254;6.594;2022-12-29T16:16:44;8.40;4.40
51595;DHT22;37677;53.254;6.594;2022-12-29T16:19:24;9.00;4.00
51595;DHT22;37677;53.254;6.594;2022-12-29T16:21:51;8.50;8.80
51595;DHT22;37677;53.254;6.594;2022-12-29T16:24:26;8.50;17.40
51595;DHT22;37677;53.254;6.594;2022-12-29T16:27:25;8.60;23.00
51595;DHT22;37677;53.254;6.594;2022-12-29T16:29:54;8.40;30.00
51595;DHT22;37677;53.254;6.594;2022-12-29T16:32:28;8.20;30.40
51595;DHT22;37677;53.254;6.594;2022-12-29T16:35:21;8.90;31.10
51595;DHT22;37677;53.254;6.594;2022-12-29T16:38:06;8.30;32.20
51595;DHT22;37677;53.254;6.594;2022-12-29T16:40:32;8.40;29.10
51595;DHT22;37677;53.254;6.594;2022-12-29T16:43:03;9.10;25.00
51595;DHT22;37677;53.254;6.594;2022-12-29T16:50:42;8.60;31.20
51595;DHT22;37677;53.254;6.594;2022-12-29T16:53:31;8.10;33.20
51595;DHT22;37677;53.254;6.594;2022-12-29T16:56:03;7.90;32.10
51595;DHT22;37677;53.254;6.594;2022-12-29T16:58:30;8.10;33.10
51595;DHT22;37677;53.254;6.594;2022-12-29T17:01:03;7.30;31.40
51595;DHT22;37677;53.254;6.594;2022-12-29T17:03:41;7.90;33.40
51595;DHT22;37677;53.254;6.594;2022-12-29T17:06:17;8.70;31.80
51595;DHT22;37677;53.254;6.594;2022-12-29T17:08:44;8.00;32.20
51595;DHT22;37677;53.254;6.594;2022-12-29T17:11:31;8.10;33.60
51595;DHT22;37677;53.254;6.594;2022-12-29T17:17:10;7.60;29.90
51595;DHT22;37677;53.254;6.594;2022-12-29T17:19:37;7.70;30.30
51595;DHT22;37677;53.254;6.594;2022-12-29T17:22:11;7.50;32.40
51595;DHT22;37677;53.254;6.594;2022-12-29T17:24:37;8.40;33.50
51595;DHT22;37677;53.254;6.594;2022-12-29T17:27:03;7.60;34.80
51595;DHT22;37677;53.254;6.594;2022-12-29T17:29:37;7.50;34.60
51595;DHT22;37677;53.254;6.594;2022-12-29T17:32:06;7.50;40.10
51595;DHT22;37677;53.254;6.594;2022-12-29T17:34:34;7.90;39.60
51595;DHT22;37677;53.254;6.594;2022-12-29T17:37:00;7.70;43.30
51595;DHT22;37677;53.254;6.594;2022-12-29T17:39:25;7.60;44.80
51595;DHT22;37677;53.254;6.594;2022-12-29T17:41:51;9.20;45.00
51595;DHT22;37677;53.254;6.594;2022-12-29T17:44:19;7.60;44.80
51595;DHT22;37677;53.254;6.594;2022-12-29T17:46:46;9.10;47.60
51595;DHT22;37677;53.254;6.594;2022-12-29T17:49:13;7.80;44.20
51595;DHT22;37677;53.254;6.594;2022-12-29T17:51:42;8.00;46.10
51595;DHT22;37677;53.254;6.594;2022-12-29T17:54:22;7.80;44.80
51595;DHT22;37677;53.254;6.594;2022-12-29T17:56:48;8.00;45.20
51595;DHT22;37677;53.254;6.594;2022-12-29T17:59:14;7.90;42.90
51595;DHT22;37677;53.254;6.594;2022-12-29T18:01:42;8.10;41.20
51595;DHT22;37677;53.254;6.594;2022-12-29T18:04:13;7.90;36.20
51595;DHT22;37677;53.254;6.594;2022-12-29T18:06:40;8.00;34.40
51595;DHT22;37677;53.254;6.594;2022-12-29T18:09:06;8.20;32.70
51595;DHT22;37677;53.254;6.594;2022-12-29T18:11:34;9.40;34.10
51595;DHT22;37677;53.254;6.594;2022-12-29T18:14:00;8.30;34.40
51595;DHT22;37677;53.254;6.594;2022-12-29T18:16:26;8.20;30.20
51595;DHT22;37677;53.254;6.594;2022-12-29T18:18:52;8.40;31.00
51595;DHT22;37677;53.254;6.594;2022-12-29T18:21:19;8.20;30.40
51595;DHT22;37677;53.254;6.594;2022-12-29T18:23:46;8.10;28.30
51595;DHT22;37677;53.254;6.594;2022-12-29T18:26:16;8.10;29.00
51595;DHT22;37677;53.254;6.594;2022-12-29T18:28:42;8.10;27.50
51595;DHT22;37677;53.254;6.594;2022-12-29T18:31:16;9.40;29.20
51595;DHT22;37677;53.254;6.594;2022-12-29T18:33:42;8.00;27.80
51595;DHT22;37677;53.254;6.594;2022-12-29T18:36:11;8.10;28.20